Time,TemperatureF,DewpointF,PressureIn,WindDirection,WindDirectionDegrees,WindSpeedMPH,WindSpeedGustMPH,Humidity,HourlyPrecipIn,Conditions,Clouds,dailyrainin,SoftwareType,DateUTC
2013-01-20 00:01:00,31.3,30.0,30.16,South,188,0.0,0.0,95,0.00,,,0.00,Wunderground v.1.15,2013-01-20 05:01:00,
2013-01-20 00:05:00,31.3,30.0,30.16,South,188,0.0,0.0,95,0.00,,,0.00,Wunderground v.1.15,2013-01-20 05:05:00,
2013-01-20 00:10:00,31.6,30.3,30.16,South,188,0.0,0.0,95,0.00,,,0.00,Wunderground v.1.15,2013-01-20 05:10:00,
2013-01-20 00:15:00,31.8,30.5,30.15,South,188,0.0,0.0,95,0.00,,,0.00,Wunderground v.1.15,2013-01-20 05:15:00,
2013-01-20 00:20:00,32.1,30.8,30.16,NW,324,0.0,0.0,95,0.00,,,0.00,Wunderground v.1.15,2013-01-20 05:20:00,
2013-01-20 00:25:00,32.3,30.8,30.16,NW,324,0.0,0.0,94,0.00,,,0.00,Wunderground v.1.15,2013-01-20 05:25:00,
2013-01-20 00:30:00,32.3,30.5,30.15,NW,324,0.0,0.0,93,0.00,,,0.00,Wunderground v.1.15,2013-01-20 05:30:00,
2013-01-20 00:35:00,32.4,30.6,30.16,NW,324,0.0,0.0,93,0.00,,,0.00,Wunderground v.1.15,2013-01-20 05:35:00,
2013-01-20 00:40:00,32.4,30.6,30.15,NW,324,0.0,0.0,93,0.00,,,0.00,Wunderground v.1.15,2013-01-20 05:40:00,
2013-01-20 00:45:00,32.4,30.6,30.15,NW,324,0.0,0.0,93,0.00,,,0.00,Wunderground v.1.15,2013-01-20 05:45:00,
2013-01-20 00:55:00,32.4,30.6,30.14,NW,324,0.0,0.0,93,0.00,,,0.00,Wunderground v.1.15,2013-01-20 05:55:00,
2013-01-20 01:00:00,32.3,30.5,30.14,NW,324,0.0,0.0,93,0.00,,,0.00,Wunderground v.1.15,2013-01-20 06:00:00,
2013-01-20 01:05:00,32.2,30.4,30.14,NW,324,0.0,0.0,93,0.00,,,0.00,Wunderground v.1.15,2013-01-20 06:05:00,
2013-01-20 01:15:00,32.0,30.5,30.14,NW,324,0.0,0.0,94,0.00,,,0.00,Wunderground v.1.15,2013-01-20 06:15:00,
2013-01-20 01:20:00,32.0,30.5,30.14,NW,324,0.0,0.0,94,0.00,,,0.00,Wunderground v.1.15,2013-01-20 06:20:00,
2013-01-20 01:25:00,32.0,30.5,30.14,NW,324,0.0,0.0,94,0.00,,,0.00,Wunderground v.1.15,2013-01-20 06:25:00,
2013-01-20 01:30:00,31.9,30.4,30.14,NW,324,0.0,0.0,94,0.00,,,0.00,Wunderground v.1.15,2013-01-20 06:30:00,
2013-01-20 01:40:00,31.9,30.4,30.13,NW,324,0.0,0.0,94,0.00,,,0.00,Wunderground v.1.15,2013-01-20 06:40:00,
2013-01-20 01:45:00,31.8,30.3,30.13,NW,324,0.0,0.0,94,0.00,,,0.00,Wunderground v.1.15,2013-01-20 06:45:00,
2013-01-20 01:50:00,31.7,30.2,30.13,NW,324,0.0,0.0,94,0.00,,,0.00,Wunderground v.1.15,2013-01-20 06:50:00,
2013-01-20 02:00:00,31.6,30.1,30.13,NW,324,0.0,0.0,94,0.00,,,0.00,Wunderground v.1.15,2013-01-20 07:00:00,
2013-01-20 02:05:00,31.7,30.2,30.13,NW,324,0.0,0.0,94,0.00,,,0.00,Wunderground v.1.15,2013-01-20 07:05:00,
2013-01-20 02:10:00,31.8,30.3,30.13,NW,324,0.0,0.0,94,0.00,,,0.00,Wunderground v.1.15,2013-01-20 07:10:00,
2013-01-20 02:20:00,31.9,30.4,30.12,NW,324,0.0,0.0,94,0.00,,,0.00,Wunderground v.1.15,2013-01-20 07:20:00,
2013-01-20 02:25:00,31.9,30.4,30.12,NW,324,0.0,0.0,94,0.00,,,0.00,Wunderground v.1.15,2013-01-20 07:25:00,
2013-01-20 02:30:00,31.9,30.1,30.12,NW,324,0.0,0.0,93,0.00,,,0.00,Wunderground v.1.15,2013-01-20 07:30:00,
2013-01-20 02:40:00,31.8,30.0,30.12,NW,324,0.0,0.0,93,0.00,,,0.00,Wunderground v.1.15,2013-01-20 07:40:00,
2013-01-20 02:45:00,31.7,29.9,30.12,NW,324,0.0,0.0,93,0.00,,,0.00,Wunderground v.1.15,2013-01-20 07:45:00,
2013-01-20 02:50:00,31.7,29.9,30.12,NW,324,0.0,0.0,93,0.00,,,0.00,Wunderground v.1.15,2013-01-20 07:50:00,
2013-01-20 02:55:00,31.7,29.9,30.11,NW,324,0.0,0.0,93,0.00,,,0.00,Wunderground v.1.15,2013-01-20 07:55:00,
2013-01-20 03:05:00,31.7,29.9,30.12,NW,324,0.0,0.0,93,0.00,,,0.00,Wunderground v.1.15,2013-01-20 08:05:00,
2013-01-20 03:10:00,31.7,29.9,30.12,NW,324,0.0,0.0,93,0.00,,,0.00,Wunderground v.1.15,2013-01-20 08:10:00,
2013-01-20 03:15:00,31.6,29.8,30.12,NW,324,0.0,0.0,93,0.00,,,0.00,Wunderground v.1.15,2013-01-20 08:15:00,
2013-01-20 03:20:00,31.7,29.9,30.12,NW,324,0.0,0.0,93,0.00,,,0.00,Wunderground v.1.15,2013-01-20 08:20:00,
2013-01-20 03:30:00,31.7,29.9,30.11,NW,324,0.0,0.0,93,0.00,,,0.00,Wunderground v.1.15,2013-01-20 08:30:00,
2013-01-20 03:35:00,31.7,29.9,30.11,NW,324,0.0,0.0,93,0.00,,,0.00,Wunderground v.1.15,2013-01-20 08:35:00,
2013-01-20 03:40:00,31.6,29.8,30.11,NW,324,0.0,0.0,93,0.00,,,0.00,Wunderground v.1.15,2013-01-20 08:40:00,
2013-01-20 03:50:00,31.4,29.6,30.11,NW,324,0.0,0.0,93,0.00,,,0.00,Wunderground v.1.15,2013-01-20 08:50:00,
2013-01-20 03:55:00,31.3,29.8,30.10,NW,324,0.0,0.0,94,0.00,,,0.00,Wunderground v.1.15,2013-01-20 08:55:00,
2013-01-20 04:00:00,31.2,29.7,30.10,NW,324,0.0,0.0,94,0.00,,,0.00,Wunderground v.1.15,2013-01-20 09:00:00,
2013-01-20 04:10:00,31.2,29.7,30.10,NW,324,0.0,0.0,94,0.00,,,0.00,Wunderground v.1.15,2013-01-20 09:10:00,
2013-01-20 04:15:00,31.2,29.7,30.10,NW,324,0.0,0.0,94,0.00,,,0.00,Wunderground v.1.15,2013-01-20 09:15:00,
2013-01-20 04:20:00,31.2,29.7,30.10,NW,324,0.0,0.0,94,0.00,,,0.00,Wunderground v.1.15,2013-01-20 09:20:00,
2013-01-20 04:30:00,31.3,29.8,30.10,NW,324,0.0,0.0,94,0.00,,,0.00,Wunderground v.1.15,2013-01-20 09:30:00,
2013-01-20 04:35:00,31.3,29.8,30.10,NW,324,0.0,0.0,94,0.00,,,0.00,Wunderground v.1.15,2013-01-20 09:35:00,
2013-01-20 04:40:00,31.2,29.7,30.10,NW,324,0.0,0.0,94,0.00,,,0.00,Wunderground v.1.15,2013-01-20 09:40:00,
2013-01-20 04:45:00,31.3,29.8,30.10,NW,324,0.0,0.0,94,0.00,,,0.00,Wunderground v.1.15,2013-01-20 09:45:00,
2013-01-20 04:55:00,31.2,29.7,30.09,NW,324,0.0,0.0,94,0.00,,,0.00,Wunderground v.1.15,2013-01-20 09:55:00,
2013-01-20 05:00:00,31.2,29.7,30.09,NW,324,0.0,0.0,94,0.00,,,0.00,Wunderground v.1.15,2013-01-20 10:00:00,
2013-01-20 05:05:00,31.1,29.6,30.10,NW,324,0.0,0.0,94,0.00,,,0.00,Wunderground v.1.15,2013-01-20 10:05:00,
2013-01-20 05:10:00,31.0,29.5,30.10,NW,324,0.0,0.0,94,0.00,,,0.00,Wunderground v.1.15,2013-01-20 10:10:00,
2013-01-20 05:20:00,30.9,29.4,30.10,NW,324,0.0,0.0,94,0.00,,,0.00,Wunderground v.1.15,2013-01-20 10:20:00,
2013-01-20 05:25:00,30.9,29.4,30.09,NW,324,0.0,0.0,94,0.00,,,0.00,Wunderground v.1.15,2013-01-20 10:25:00,
2013-01-20 05:35:00,31.0,29.7,30.10,NW,324,0.0,0.0,95,0.00,,,0.00,Wunderground v.1.15,2013-01-20 10:35:00,
2013-01-20 05:40:00,31.1,29.8,30.09,NW,324,0.0,0.0,95,0.00,,,0.00,Wunderground v.1.15,2013-01-20 10:40:00,
2013-01-20 05:45:00,31.1,29.6,30.09,NW,324,0.0,0.0,94,0.00,,,0.00,Wunderground v.1.15,2013-01-20 10:45:00,
2013-01-20 05:50:00,31.1,29.6,30.09,NW,324,0.0,0.0,94,0.00,,,0.00,Wunderground v.1.15,2013-01-20 10:50:00,
2013-01-20 06:00:00,31.1,29.6,30.09,NW,324,0.0,0.0,94,0.00,,,0.00,Wunderground v.1.15,2013-01-20 11:00:00,
2013-01-20 06:05:00,31.0,29.5,30.09,NW,324,0.0,0.0,94,0.00,,,0.00,Wunderground v.1.15,2013-01-20 11:05:00,
2013-01-20 06:10:00,31.1,29.8,30.09,NW,324,0.0,0.0,95,0.00,,,0.00,Wunderground v.1.15,2013-01-20 11:10:00,
2013-01-20 06:20:00,31.1,29.6,30.09,NW,324,0.0,0.0,94,0.00,,,0.00,Wunderground v.1.15,2013-01-20 11:20:00,
2013-01-20 06:25:00,31.1,29.6,30.09,NW,324,0.0,0.0,94,0.00,,,0.00,Wunderground v.1.15,2013-01-20 11:25:00,
2013-01-20 06:30:00,30.9,29.4,30.09,NW,324,0.0,0.0,94,0.00,,,0.00,Wunderground v.1.15,2013-01-20 11:30:00,
2013-01-20 06:35:00,30.9,29.4,30.09,NW,324,0.0,0.0,94,0.00,,,0.00,Wunderground v.1.15,2013-01-20 11:35:00,
2013-01-20 06:45:00,30.7,29.4,30.09,NW,324,0.0,0.0,95,0.00,,,0.00,Wunderground v.1.15,2013-01-20 11:45:00,
2013-01-20 06:50:00,30.6,29.1,30.09,NW,324,0.0,0.0,94,0.00,,,0.00,Wunderground v.1.15,2013-01-20 11:50:00,
2013-01-20 06:55:00,30.5,29.0,30.09,NW,324,0.0,0.0,94,0.00,,,0.00,Wunderground v.1.15,2013-01-20 11:55:00,
2013-01-20 07:05:00,30.3,29.0,30.09,NW,324,0.0,0.0,95,0.00,,,0.00,Wunderground v.1.15,2013-01-20 12:05:00,
2013-01-20 07:10:00,30.3,29.0,30.09,NW,324,0.0,0.0,95,0.00,,,0.00,Wunderground v.1.15,2013-01-20 12:10:00,
2013-01-20 07:15:00,30.2,28.9,30.09,NW,324,0.0,0.0,95,0.00,,,0.00,Wunderground v.1.15,2013-01-20 12:15:00,
2013-01-20 07:25:00,30.1,28.8,30.09,NW,324,0.0,0.0,95,0.00,,,0.00,Wunderground v.1.15,2013-01-20 12:25:00,
2013-01-20 07:30:00,30.0,28.7,30.09,NW,324,0.0,0.0,95,0.00,,,0.00,Wunderground v.1.15,2013-01-20 12:30:00,
2013-01-20 07:35:00,29.9,28.6,30.10,North,355,0.0,0.0,95,0.00,,,0.00,Wunderground v.1.15,2013-01-20 12:35:00,
2013-01-20 07:40:00,29.9,28.6,30.10,North,355,0.0,0.0,95,0.00,,,0.00,Wunderground v.1.15,2013-01-20 12:40:00,
2013-01-20 07:50:00,29.8,28.5,30.10,North,355,0.0,0.0,95,0.00,,,0.00,Wunderground v.1.15,2013-01-20 12:50:00,
2013-01-20 07:55:00,29.8,28.5,30.10,North,355,0.0,0.0,95,0.00,,,0.00,Wunderground v.1.15,2013-01-20 12:55:00,
2013-01-20 08:00:00,29.9,28.9,30.10,North,355,0.0,0.0,96,0.00,,,0.00,Wunderground v.1.15,2013-01-20 13:00:00,
2013-01-20 08:10:00,30.1,29.1,30.11,North,355,0.0,0.0,96,0.00,,,0.00,Wunderground v.1.15,2013-01-20 13:10:00,
2013-01-20 08:15:00,30.4,29.4,30.11,North,355,0.0,0.0,96,0.00,,,0.00,Wunderground v.1.15,2013-01-20 13:15:00,
2013-01-20 08:20:00,30.7,29.7,30.11,North,355,0.0,0.0,96,0.00,,,0.00,Wunderground v.1.15,2013-01-20 13:20:00,
2013-01-20 08:30:00,31.4,30.4,30.11,NNW,333,0.0,0.0,96,0.00,,,0.00,Wunderground v.1.15,2013-01-20 13:30:00,
2013-01-20 08:35:00,31.7,30.7,30.11,NNW,333,0.0,0.0,96,0.00,,,0.00,Wunderground v.1.15,2013-01-20 13:35:00,
2013-01-20 08:40:00,32.6,31.3,30.11,NNW,333,0.0,0.0,95,0.00,,,0.00,Wunderground v.1.15,2013-01-20 13:40:00,
2013-01-20 08:45:00,32.8,31.3,30.11,NNW,334,0.0,0.0,94,0.00,,,0.00,Wunderground v.1.15,2013-01-20 13:45:00,
2013-01-20 08:55:00,33.4,31.9,30.11,NW,306,0.0,0.0,94,0.00,,,0.00,Wunderground v.1.15,2013-01-20 13:55:00,
2013-01-20 09:00:00,34.3,32.2,30.11,NW,306,0.0,0.0,92,0.00,,,0.00,Wunderground v.1.15,2013-01-20 14:00:00,
2013-01-20 09:10:00,36.7,32.3,30.11,WSW,249,0.0,0.0,84,0.00,,,0.00,Wunderground v.1.15,2013-01-20 14:10:00,
2013-01-20 09:15:00,38.2,33.2,30.11,WSW,237,0.0,2.0,82,0.00,,,0.00,Wunderground v.1.15,2013-01-20 14:15:00,
2013-01-20 09:20:00,39.3,33.0,30.12,WSW,251,0.0,0.0,78,0.00,,,0.00,Wunderground v.1.15,2013-01-20 14:20:00,
2013-01-20 09:25:00,40.3,33.3,30.11,SW,223,1.0,1.0,76,0.00,,,0.00,Wunderground v.1.15,2013-01-20 14:25:00,
2013-01-20 09:35:00,41.7,33.3,30.12,SW,218,1.0,2.0,72,0.00,,,0.00,Wunderground v.1.15,2013-01-20 14:35:00,
2013-01-20 09:40:00,42.4,33.7,30.12,WSW,258,1.0,1.0,71,0.00,,,0.00,Wunderground v.1.15,2013-01-20 14:40:00,
2013-01-20 09:45:00,42.9,33.4,30.12,WSW,251,1.0,1.0,69,0.00,,,0.00,Wunderground v.1.15,2013-01-20 14:45:00,
2013-01-20 09:55:00,44.7,34.8,30.12,South,183,1.0,4.0,68,0.00,,,0.00,Wunderground v.1.15,2013-01-20 14:55:00,
2013-01-20 10:00:00,45.6,34.1,30.11,WNW,284,2.0,4.0,64,0.00,,,0.00,Wunderground v.1.15,2013-01-20 15:00:00,
2013-01-20 10:05:00,46.6,35.5,30.11,West,281,1.0,4.0,65,0.00,,,0.00,Wunderground v.1.15,2013-01-20 15:05:00,
2013-01-20 10:15:00,48.1,34.9,30.12,SW,215,2.0,4.0,60,0.00,,,0.00,Wunderground v.1.15,2013-01-20 15:15:00,
2013-01-20 10:20:00,48.9,35.2,30.12,WSW,242,1.0,2.0,59,0.00,,,0.00,Wunderground v.1.15,2013-01-20 15:20:00,
2013-01-20 10:25:00,49.7,35.5,30.11,SSW,208,2.0,5.0,58,0.00,,,0.00,Wunderground v.1.15,2013-01-20 15:25:00,
2013-01-20 10:35:00,51.0,35.4,30.11,WSW,246,2.0,3.0,55,0.00,,,0.00,Wunderground v.1.15,2013-01-20 15:35:00,
2013-01-20 10:40:00,51.4,35.8,30.11,WSW,241,2.0,2.0,55,0.00,,,0.00,Wunderground v.1.15,2013-01-20 15:40:00,
2013-01-20 10:45:00,51.8,35.2,30.11,WNW,294,2.0,2.0,53,0.00,,,0.00,Wunderground v.1.15,2013-01-20 15:45:00,
2013-01-20 10:50:00,52.1,35.5,30.11,South,175,1.0,1.0,53,0.00,,,0.00,Wunderground v.1.15,2013-01-20 15:50:00,
2013-01-20 11:00:00,52.5,36.8,30.11,NNW,327,1.0,1.0,55,0.00,,,0.00,Wunderground v.1.15,2013-01-20 16:00:00,
2013-01-20 11:05:00,52.8,36.1,30.10,WNW,296,1.0,1.0,53,0.00,,,0.00,Wunderground v.1.15,2013-01-20 16:05:00,
2013-01-20 11:10:00,53.1,35.9,30.10,West,267,1.0,3.0,52,0.00,,,0.00,Wunderground v.1.15,2013-01-20 16:10:00,
2013-01-20 11:20:00,54.2,36.5,30.09,WNW,300,2.0,2.0,51,0.00,,,0.00,Wunderground v.1.15,2013-01-20 16:20:00,
2013-01-20 11:25:00,54.8,37.5,30.09,WSW,256,1.0,5.0,52,0.00,,,0.00,Wunderground v.1.15,2013-01-20 16:25:00,
2013-01-20 11:30:00,55.1,36.8,30.09,West,275,2.0,2.0,50,0.00,,,0.00,Wunderground v.1.15,2013-01-20 16:30:00,
2013-01-20 11:40:00,55.0,36.2,30.08,NE,47,3.0,3.0,49,0.00,,,0.00,Wunderground v.1.15,2013-01-20 16:40:00,
2013-01-20 11:45:00,55.2,37.4,30.08,WSW,244,4.0,5.0,51,0.00,,,0.00,Wunderground v.1.15,2013-01-20 16:45:00,
2013-01-20 11:50:00,55.5,38.1,30.08,SW,228,3.0,4.0,52,0.00,,,0.00,Wunderground v.1.15,2013-01-20 16:50:00,
2013-01-20 12:00:00,55.9,37.0,30.07,WSW,248,3.0,3.0,49,0.00,,,0.00,Wunderground v.1.15,2013-01-20 17:00:00,
2013-01-20 12:05:00,56.0,37.6,30.07,West,259,3.0,3.0,50,0.00,,,0.00,Wunderground v.1.15,2013-01-20 17:05:00,
2013-01-20 12:10:00,56.2,36.8,30.07,NNW,344,3.0,3.0,48,0.00,,,0.00,Wunderground v.1.15,2013-01-20 17:10:00,
2013-01-20 12:20:00,57.1,37.6,30.06,West,274,2.0,4.0,48,0.00,,,0.00,Wunderground v.1.15,2013-01-20 17:20:00,
2013-01-20 12:25:00,57.4,36.8,30.06,SW,229,3.0,5.0,46,0.00,,,0.00,Wunderground v.1.15,2013-01-20 17:25:00,
2013-01-20 12:30:00,57.8,37.1,30.05,SW,227,3.0,6.0,46,0.00,,,0.00,Wunderground v.1.15,2013-01-20 17:30:00,
2013-01-20 12:35:00,58.3,37.0,30.05,South,174,3.0,6.0,45,0.00,,,0.00,Wunderground v.1.15,2013-01-20 17:35:00,
2013-01-20 12:45:00,58.9,35.8,30.05,WSW,257,3.0,8.0,42,0.00,,,0.00,Wunderground v.1.15,2013-01-20 17:45:00,
2013-01-20 12:50:00,58.9,36.4,30.04,West,265,4.0,7.0,43,0.00,,,0.00,Wunderground v.1.15,2013-01-20 17:50:00,
2013-01-20 12:55:00,59.0,35.3,30.04,WSW,238,4.0,7.0,41,0.00,,,0.00,Wunderground v.1.15,2013-01-20 17:55:00,
2013-01-20 13:05:00,59.3,35.0,30.04,WSW,244,2.0,4.0,40,0.00,,,0.00,Wunderground v.1.15,2013-01-20 18:05:00,
2013-01-20 13:10:00,59.3,35.0,30.04,NNW,340,4.0,4.0,40,0.00,,,0.00,Wunderground v.1.15,2013-01-20 18:10:00,
2013-01-20 13:15:00,59.6,36.5,30.03,SW,221,3.0,4.0,42,0.00,,,0.00,Wunderground v.1.15,2013-01-20 18:15:00,
2013-01-20 13:25:00,59.9,35.5,30.03,WSW,242,3.0,6.0,40,0.00,,,0.00,Wunderground v.1.15,2013-01-20 18:25:00,
2013-01-20 13:30:00,59.7,35.3,30.03,WNW,298,3.0,4.0,40,0.00,,,0.00,Wunderground v.1.15,2013-01-20 18:30:00,
2013-01-20 13:35:00,59.9,35.5,30.03,SSW,213,3.0,6.0,40,0.00,,,0.00,Wunderground v.1.15,2013-01-20 18:35:00,
2013-01-20 13:40:00,59.9,34.9,30.03,NW,304,3.0,4.0,39,0.00,,,0.00,Wunderground v.1.15,2013-01-20 18:40:00,
2013-01-20 13:50:00,60.1,36.3,30.03,West,275,4.0,6.0,41,0.00,,,0.00,Wunderground v.1.15,2013-01-20 18:50:00,
2013-01-20 13:55:00,60.5,36.0,30.03,SSW,211,3.0,6.0,40,0.00,,,0.00,Wunderground v.1.15,2013-01-20 18:55:00,
2013-01-20 14:00:00,60.7,34.3,30.02,West,277,4.0,4.0,37,0.00,,,0.00,Wunderground v.1.15,2013-01-20 19:00:00,
2013-01-20 14:10:00,61.2,34.0,30.02,NE,53,2.0,4.0,36,0.00,,,0.00,Wunderground v.1.15,2013-01-20 19:10:00,
2013-01-20 14:15:00,61.3,34.8,30.02,NW,313,3.0,4.0,37,0.00,,,0.00,Wunderground v.1.15,2013-01-20 19:15:00,
2013-01-20 14:20:00,61.4,34.9,30.02,North,5,3.0,3.0,37,0.00,,,0.00,Wunderground v.1.15,2013-01-20 19:20:00,
2013-01-20 14:25:00,61.5,35.0,30.02,NW,322,3.0,3.0,37,0.00,,,0.00,Wunderground v.1.15,2013-01-20 19:25:00,
2013-01-20 14:35:00,61.2,34.7,30.02,West,268,4.0,6.0,37,0.00,,,0.00,Wunderground v.1.15,2013-01-20 19:35:00,
2013-01-20 14:40:00,61.2,35.4,30.02,NE,47,3.0,3.0,38,0.00,,,0.00,Wunderground v.1.15,2013-01-20 19:40:00,
2013-01-20 14:45:00,61.4,34.2,30.02,WNW,286,2.0,3.0,36,0.00,,,0.00,Wunderground v.1.15,2013-01-20 19:45:00,
2013-01-20 14:55:00,61.7,35.8,30.01,West,281,2.0,2.0,38,0.00,,,0.00,Wunderground v.1.15,2013-01-20 19:55:00,
2013-01-20 15:00:00,62.1,35.5,30.01,West,278,2.0,2.0,37,0.00,,,0.00,Wunderground v.1.15,2013-01-20 20:00:00,
2013-01-20 15:05:00,62.0,34.7,30.01,SW,222,2.0,3.0,36,0.00,,,0.00,Wunderground v.1.15,2013-01-20 20:05:00,
2013-01-20 15:15:00,61.0,34.5,30.02,West,276,5.0,6.0,37,0.00,,,0.00,Wunderground v.1.15,2013-01-20 20:15:00,
2013-01-20 15:20:00,61.2,35.4,30.02,NNW,332,3.0,3.0,38,0.00,,,0.00,Wunderground v.1.15,2013-01-20 20:20:00,
2013-01-20 15:25:00,61.4,34.9,30.01,WSW,250,2.0,3.0,37,0.00,,,0.00,Wunderground v.1.15,2013-01-20 20:25:00,
2013-01-20 15:30:00,61.6,35.1,30.01,West,263,2.0,3.0,37,0.00,,,0.00,Wunderground v.1.15,2013-01-20 20:30:00,
2013-01-20 15:40:00,61.4,34.2,30.01,SE,142,3.0,3.0,36,0.00,,,0.00,Wunderground v.1.15,2013-01-20 20:40:00,
2013-01-20 15:45:00,61.3,34.8,30.01,NNW,340,3.0,3.0,37,0.00,,,0.00,Wunderground v.1.15,2013-01-20 20:45:00,
2013-01-20 15:50:00,61.3,34.8,30.01,NW,315,2.0,2.0,37,0.00,,,0.00,Wunderground v.1.15,2013-01-20 20:50:00,
2013-01-20 16:00:00,61.3,33.4,30.01,WSW,255,2.0,2.0,35,0.00,,,0.00,Wunderground v.1.15,2013-01-20 21:00:00,
2013-01-20 16:05:00,61.3,34.1,30.01,WNW,301,2.0,2.0,36,0.00,,,0.00,Wunderground v.1.15,2013-01-20 21:05:00,
2013-01-20 16:10:00,61.3,33.4,30.01,NNW,341,2.0,3.0,35,0.00,,,0.00,Wunderground v.1.15,2013-01-20 21:10:00,
2013-01-20 16:20:00,60.9,31.6,30.01,WNW,291,3.0,4.0,33,0.00,,,0.00,Wunderground v.1.15,2013-01-20 21:20:00,
2013-01-20 16:25:00,60.6,29.8,30.01,NW,309,3.0,4.0,31,0.00,,,0.00,Wunderground v.1.15,2013-01-20 21:25:00,
2013-01-20 16:30:00,60.4,31.1,30.01,NNW,327,3.0,3.0,33,0.00,,,0.00,Wunderground v.1.15,2013-01-20 21:30:00,
2013-01-20 16:40:00,59.7,29.8,30.01,NW,317,2.0,2.0,32,0.00,,,0.00,Wunderground v.1.15,2013-01-20 21:40:00,
2013-01-20 16:45:00,59.4,30.3,30.02,West,275,2.0,5.0,33,0.00,,,0.00,Wunderground v.1.15,2013-01-20 21:45:00,
2013-01-20 16:50:00,59.0,30.6,30.01,WNW,288,1.0,1.0,34,0.00,,,0.00,Wunderground v.1.15,2013-01-20 21:50:00,
2013-01-20 16:55:00,58.6,30.3,30.01,WNW,286,1.0,1.0,34,0.00,,,0.00,Wunderground v.1.15,2013-01-20 21:55:00,
2013-01-20 17:05:00,58.0,30.5,30.02,WSW,254,0.0,1.0,35,0.00,,,0.00,Wunderground v.1.15,2013-01-20 22:05:00,
2013-01-20 17:10:00,57.8,32.3,30.02,WSW,257,1.0,6.0,38,0.00,,,0.00,Wunderground v.1.15,2013-01-20 22:10:00,
2013-01-20 17:15:00,57.8,29.6,30.02,West,262,2.0,6.0,34,0.00,,,0.00,Wunderground v.1.15,2013-01-20 22:15:00,
2013-01-20 17:20:00,57.6,31.5,30.03,East,86,2.0,2.0,37,0.00,,,0.00,Wunderground v.1.15,2013-01-20 22:20:00,
2013-01-20 17:30:00,57.1,29.7,30.03,West,263,1.0,2.0,35,0.00,,,0.00,Wunderground v.1.15,2013-01-20 22:30:00,
2013-01-20 17:35:00,56.8,29.4,30.03,WSW,238,1.0,2.0,35,0.00,,,0.00,Wunderground v.1.15,2013-01-20 22:35:00,
2013-01-20 17:45:00,55.2,31.9,30.04,SSW,192,0.0,0.0,41,0.00,,,0.00,Wunderground v.1.15,2013-01-20 22:45:00,
2013-01-20 17:50:00,54.0,33.1,30.04,NW,317,0.0,0.0,45,0.00,,,0.00,Wunderground v.1.15,2013-01-20 22:50:00,
2013-01-20 17:55:00,52.8,32.6,30.04,NW,317,0.0,0.0,46,0.00,,,0.00,Wunderground v.1.15,2013-01-20 22:55:00,
2013-01-20 18:05:00,50.9,33.9,30.05,NW,317,0.0,0.0,52,0.00,,,0.00,Wunderground v.1.15,2013-01-20 23:05:00,
2013-01-20 18:10:00,49.9,34.4,30.05,NW,317,0.0,0.0,55,0.00,,,0.00,Wunderground v.1.15,2013-01-20 23:10:00,
2013-01-20 18:15:00,48.8,33.3,30.06,NW,317,0.0,0.0,55,0.00,,,0.00,Wunderground v.1.15,2013-01-20 23:15:00,
2013-01-20 18:25:00,47.6,32.7,30.06,NW,317,0.0,0.0,56,0.00,,,0.00,Wunderground v.1.15,2013-01-20 23:25:00,
2013-01-20 18:30:00,47.0,33.4,30.06,NW,317,0.0,0.0,59,0.00,,,0.00,Wunderground v.1.15,2013-01-20 23:30:00,
2013-01-20 18:35:00,46.5,33.4,30.07,NW,317,0.0,0.0,60,0.00,,,0.00,Wunderground v.1.15,2013-01-20 23:35:00,
2013-01-20 18:40:00,46.0,32.9,30.07,NW,317,0.0,0.0,60,0.00,,,0.00,Wunderground v.1.15,2013-01-20 23:40:00,
2013-01-20 18:50:00,46.2,33.1,30.07,NW,317,0.0,0.0,60,0.00,,,0.00,Wunderground v.1.15,2013-01-20 23:50:00,
2013-01-20 18:55:00,46.0,33.7,30.07,NW,317,0.0,0.0,62,0.00,,,0.00,Wunderground v.1.15,2013-01-20 23:55:00,
2013-01-20 19:00:00,45.8,33.1,30.07,NW,317,0.0,0.0,61,0.00,,,0.00,Wunderground v.1.15,2013-01-21 00:00:00,
2013-01-20 19:10:00,45.4,32.7,30.08,NW,317,0.0,0.0,61,0.00,,,0.00,Wunderground v.1.15,2013-01-21 00:10:00,
2013-01-20 19:15:00,45.2,33.3,30.08,NW,317,0.0,0.0,63,0.00,,,0.00,Wunderground v.1.15,2013-01-21 00:15:00,
2013-01-20 19:20:00,45.1,32.4,30.08,NW,317,0.0,0.0,61,0.00,,,0.00,Wunderground v.1.15,2013-01-21 00:20:00,
2013-01-20 19:30:00,45.3,31.4,30.08,NW,317,0.0,0.0,58,0.00,,,0.00,Wunderground v.1.15,2013-01-21 00:30:00,
2013-01-20 19:35:00,45.6,31.7,30.08,NW,317,0.0,0.0,58,0.00,,,0.00,Wunderground v.1.15,2013-01-21 00:35:00,
2013-01-20 19:40:00,45.5,32.0,30.08,NW,317,0.0,0.0,59,0.00,,,0.00,Wunderground v.1.15,2013-01-21 00:40:00,
2013-01-20 19:50:00,44.4,31.0,30.08,ENE,78,0.0,0.0,59,0.00,,,0.00,Wunderground v.1.15,2013-01-21 00:50:00,
2013-01-20 19:55:00,44.0,31.8,30.08,North,350,0.0,0.0,62,0.00,,,0.00,Wunderground v.1.15,2013-01-21 00:55:00,
2013-01-20 20:00:00,43.8,31.6,30.08,NNW,342,0.0,0.0,62,0.00,,,0.00,Wunderground v.1.15,2013-01-21 01:00:00,
2013-01-20 20:05:00,43.7,31.5,30.08,NNW,342,0.0,0.0,62,0.00,,,0.00,Wunderground v.1.15,2013-01-21 01:05:00,
2013-01-20 20:15:00,43.6,31.4,30.08,NNW,342,0.0,0.0,62,0.00,,,0.00,Wunderground v.1.15,2013-01-21 01:15:00,
2013-01-20 20:20:00,43.8,31.6,30.08,NNW,342,0.0,0.0,62,0.00,,,0.00,Wunderground v.1.15,2013-01-21 01:20:00,
2013-01-20 20:25:00,43.8,31.2,30.08,NNW,342,0.0,0.0,61,0.00,,,0.00,Wunderground v.1.15,2013-01-21 01:25:00,
2013-01-20 20:35:00,43.4,32.0,30.08,NNW,342,0.0,0.0,64,0.00,,,0.00,Wunderground v.1.15,2013-01-21 01:35:00,
2013-01-20 20:40:00,43.1,31.4,30.08,NNW,342,0.0,0.0,63,0.00,,,0.00,Wunderground v.1.15,2013-01-21 01:40:00,
2013-01-20 20:45:00,42.8,31.8,30.09,ESE,120,0.0,0.0,65,0.00,,,0.00,Wunderground v.1.15,2013-01-21 01:45:00,
2013-01-20 20:55:00,42.4,31.8,30.08,NNE,17,0.0,0.0,66,0.00,,,0.00,Wunderground v.1.15,2013-01-21 01:55:00,
2013-01-20 21:00:00,42.6,30.5,30.08,NNE,15,0.0,0.0,62,0.00,,,0.00,Wunderground v.1.15,2013-01-21 02:00:00,
2013-01-20 21:05:00,42.9,31.2,30.08,NNE,15,0.0,0.0,63,0.00,,,0.00,Wunderground v.1.15,2013-01-21 02:05:00,
2013-01-20 21:15:00,42.8,31.5,30.09,NNE,15,0.0,0.0,64,0.00,,,0.00,Wunderground v.1.15,2013-01-21 02:15:00,
2013-01-20 21:20:00,42.7,31.7,30.09,NNE,15,0.0,0.0,65,0.00,,,0.00,Wunderground v.1.15,2013-01-21 02:20:00,
2013-01-20 21:25:00,42.7,31.7,30.09,NNE,15,0.0,0.0,65,0.00,,,0.00,Wunderground v.1.15,2013-01-21 02:25:00,
2013-01-20 21:35:00,42.2,32.0,30.09,NNE,15,0.0,0.0,67,0.00,,,0.00,Wunderground v.1.15,2013-01-21 02:35:00,
2013-01-20 21:40:00,41.8,32.0,30.09,NNE,15,0.0,0.0,68,0.00,,,0.00,Wunderground v.1.15,2013-01-21 02:40:00,
2013-01-20 21:45:00,41.3,31.5,30.09,NNE,15,0.0,0.0,68,0.00,,,0.00,Wunderground v.1.15,2013-01-21 02:45:00,
2013-01-20 21:50:00,40.7,31.3,30.09,NNE,15,0.0,0.0,69,0.00,,,0.00,Wunderground v.1.15,2013-01-21 02:50:00,
2013-01-20 22:00:00,39.9,31.6,30.09,NNE,15,0.0,0.0,72,0.00,,,0.00,Wunderground v.1.15,2013-01-21 03:00:00,
2013-01-20 22:05:00,39.4,30.8,30.09,NNE,15,0.0,0.0,71,0.00,,,0.00,Wunderground v.1.15,2013-01-21 03:05:00,
2013-01-20 22:10:00,39.1,30.8,30.09,NNE,15,0.0,0.0,72,0.00,,,0.00,Wunderground v.1.15,2013-01-21 03:10:00,
2013-01-20 22:15:00,38.7,31.5,30.09,NNE,15,0.0,0.0,75,0.00,,,0.00,Wunderground v.1.15,2013-01-21 03:15:00,
2013-01-20 22:25:00,38.0,30.8,30.09,NNE,15,0.0,0.0,75,0.00,,,0.00,Wunderground v.1.15,2013-01-21 03:25:00,
2013-01-20 22:30:00,37.8,31.2,30.09,NNE,15,0.0,0.0,77,0.00,,,0.00,Wunderground v.1.15,2013-01-21 03:30:00,
2013-01-20 22:40:00,37.3,31.1,30.09,NNE,15,0.0,0.0,78,0.00,,,0.00,Wunderground v.1.15,2013-01-21 03:40:00,
2013-01-20 22:45:00,37.0,31.1,30.09,NNE,15,0.0,0.0,79,0.00,,,0.00,Wunderground v.1.15,2013-01-21 03:45:00,
2013-01-20 22:50:00,36.8,30.9,30.09,NNE,15,0.0,0.0,79,0.00,,,0.00,Wunderground v.1.15,2013-01-21 03:50:00,
2013-01-20 22:55:00,36.5,30.9,30.09,NNE,15,0.0,0.0,80,0.00,,,0.00,Wunderground v.1.15,2013-01-21 03:55:00,
2013-01-20 23:05:00,36.0,31.0,30.10,NNE,15,0.0,0.0,82,0.00,,,0.00,Wunderground v.1.15,2013-01-21 04:05:00,
2013-01-20 23:10:00,35.7,31.3,30.10,NNE,15,0.0,0.0,84,0.00,,,0.00,Wunderground v.1.15,2013-01-21 04:10:00,
2013-01-20 23:15:00,35.5,31.1,30.09,NNE,15,0.0,0.0,84,0.00,,,0.00,Wunderground v.1.15,2013-01-21 04:15:00,
2013-01-20 23:25:00,35.3,31.2,30.09,NNE,15,0.0,0.0,85,0.00,,,0.00,Wunderground v.1.15,2013-01-21 04:25:00,
2013-01-20 23:30:00,35.1,31.0,30.09,NNE,15,0.0,0.0,85,0.00,,,0.00,Wunderground v.1.15,2013-01-21 04:30:00,
2013-01-20 23:35:00,35.0,31.2,30.09,NNE,15,0.0,0.0,86,0.00,,,0.00,Wunderground v.1.15,2013-01-21 04:35:00,
2013-01-20 23:45:00,34.5,30.7,30.09,NNE,15,0.0,0.0,86,0.00,,,0.00,Wunderground v.1.15,2013-01-21 04:45:00,
2013-01-20 23:50:00,34.3,30.5,30.09,NNE,15,0.0,0.0,86,0.00,,,0.00,Wunderground v.1.15,2013-01-21 04:50:00,
2013-01-20 23:55:00,34.1,30.4,30.09,NNE,15,0.0,0.0,86,0.00,,,0.00,Wunderground v.1.15,2013-01-21 04:55:00,